Time;durP1;ratioP1;P1;durP2;ratioP2;P2;SDS_P1;SDS_P2;PMS_P1;PMS_P2;Temp;Humidity;BMP_temperature;BMP_pressure;BME280_temperature;BME280_humidity;BME280_pressure;Samples;Min_cycle;Max_cycle;Signal;HPM_P1;HPM_P2
2022/04/23 00:01:42;;;;;;;;;;;;;;;13.44;55.08;94314.50;5139435;27;1007;-51
2022/04/23 00:04:11;;;;;;;;;;;;;;;13.38;55.17;94308.09;5156741;27;1906;-51
2022/04/23 00:06:37;;;;;;;;;;;;;;;13.37;55.40;94309.09;5156685;27;1143;-51
2022/04/23 00:09:04;;;;;;;;;;;;;;;13.34;55.43;94301.47;5156809;27;968;-51
2022/04/23 00:11:30;;;;;;;;;;;;;;;13.30;55.71;94297.53;5154992;27;1059;-51
2022/04/23 00:13:56;;;;;;;;;;;;;;;13.26;55.87;94293.53;5136042;27;1048;-51
2022/04/23 00:16:23;;;;;;;;;;;;;;;13.29;55.76;94290.44;5135759;27;1094;-51
2022/04/23 00:18:49;;;;;;;;;;;;;;;13.23;56.10;94291.25;5135866;27;964;-51
2022/04/23 00:21:15;;;;;;;;;;;;;;;13.24;56.25;94292.88;5135614;27;1032;-51
2022/04/23 00:23:41;;;;;;;;;;;;;;;13.25;56.05;94295.38;5155017;27;1905;-50
2022/04/23 00:26:07;;;;;;;;;;;;;;;13.24;56.21;94288.38;5156360;27;1828;-51
2022/04/23 00:28:33;;;;;;;;;;;;;;;13.19;56.47;94282.75;5156484;27;1104;-51
2022/04/23 00:30:59;;;;;;;;;;;;;;;13.16;56.65;94285.00;5156372;27;1238;-51
2022/04/23 00:33:25;;;;;;;;;;;;;;;13.24;56.42;94279.47;5138883;27;1055;-51
2022/04/23 00:35:51;;;;;;;;;;;;;;;13.28;56.18;94281.56;5135382;27;1084;-51
2022/04/23 00:38:18;;;;;;;;;;;;;;;13.31;56.22;94275.00;5135173;27;1107;-51
2022/04/23 00:40:44;;;;;;;;;;;;;;;13.34;56.13;94282.66;5135555;27;1031;-51
2022/04/23 00:43:25;;;;;;;;;;;;;;;13.39;56.32;94279.38;5135334;27;1020;-51
2022/04/23 00:45:51;;;;;;;;;;;;;;;13.44;56.45;94279.59;5135535;27;1060;-51
2022/04/23 00:48:18;;;;;;;;;;;;;;;13.44;56.09;94280.44;5135447;27;999;-51
2022/04/23 00:50:44;;;;;;;;;;;;;;;13.44;56.11;94288.47;5135188;27;1055;-51
2022/04/23 00:53:11;;;;;;;;;;;;;;;13.55;55.68;94275.53;5135043;27;1006;-51
2022/04/23 00:55:37;;;;;;;;;;;;;;;13.49;56.54;94279.84;5135358;27;1011;-51
2022/04/23 00:58:03;;;;;;;;;;;;;;;13.35;57.04;94288.84;5135172;27;969;-51
2022/04/23 01:00:29;;;;;;;;;;;;;;;13.19;57.25;94287.31;5135296;27;1079;-51
2022/04/23 01:02:55;;;;;;;;;;;;;;;12.97;57.98;94298.09;5146914;27;1031;-51
2022/04/23 01:05:26;;;;;;;;;;;;;;;12.83;58.42;94299.88;5155792;27;1922;-51
2022/04/23 01:07:53;;;;;;;;;;;;;;;12.75;58.44;94299.19;5155780;27;992;-51
2022/04/23 01:10:19;;;;;;;;;;;;;;;12.70;58.63;94303.28;5155776;27;1027;-51
2022/04/23 01:12:46;;;;;;;;;;;;;;;12.68;59.32;94299.97;5144990;27;1098;-51
2022/04/23 01:15:13;;;;;;;;;;;;;;;12.74;59.01;94302.91;5135073;27;999;-51
2022/04/23 01:17:40;;;;;;;;;;;;;;;12.74;58.45;94301.03;5134998;27;964;-51
2022/04/23 01:20:07;;;;;;;;;;;;;;;12.58;59.46;94299.50;5134752;27;1202;-51
2022/04/23 01:22:35;;;;;;;;;;;;;;;12.41;60.18;94296.25;5142862;27;972;-51
2022/04/23 01:25:04;;;;;;;;;;;;;;;12.50;59.26;94292.41;5155229;27;2026;-51
2022/04/23 01:27:30;;;;;;;;;;;;;;;12.48;59.36;94296.31;5154429;27;981;-51
2022/04/23 01:29:56;;;;;;;;;;;;;;;12.50;59.62;94281.69;5154497;27;1047;-51
2022/04/23 01:32:22;;;;;;;;;;;;;;;12.40;60.38;94293.75;5153782;27;1018;-51
2022/04/23 01:34:49;;;;;;;;;;;;;;;12.38;60.89;94301.19;5155382;27;999;-51
2022/04/23 01:37:17;;;;;;;;;;;;;;;12.30;61.01;94307.50;5154629;27;1110;-51
2022/04/23 01:39:44;;;;;;;;;;;;;;;12.24;61.54;94305.59;5155116;27;1548;-51
2022/04/23 01:42:10;;;;;;;;;;;;;;;12.38;60.55;94303.84;5155414;27;1054;-51
2022/04/23 01:44:36;;;;;;;;;;;;;;;12.39;60.30;94301.00;5155286;27;1914;-51
2022/04/23 01:47:02;;;;;;;;;;;;;;;12.30;60.52;94292.25;5155274;27;959;-51
2022/04/23 01:49:28;;;;;;;;;;;;;;;12.35;60.35;94298.88;5155316;27;1026;-51
2022/04/23 01:51:54;;;;;;;;;;;;;;;12.24;61.67;94311.78;5155356;27;967;-50
2022/04/23 01:54:20;;;;;;;;;;;;;;;12.11;61.62;94303.63;5154929;27;1071;-51
2022/04/23 01:56:46;;;;;;;;;;;;;;;12.35;60.26;94310.44;5155052;27;984;-51
2022/04/23 01:59:12;;;;;;;;;;;;;;;12.52;59.80;94310.16;5155008;27;1039;-51
2022/04/23 02:01:38;;;;;;;;;;;;;;;12.65;59.28;94305.75;5154870;27;1051;-51
2022/04/23 02:04:08;;;;;;;;;;;;;;;12.48;60.33;94302.50;5155156;27;1909;-51
2022/04/23 02:06:34;;;;;;;;;;;;;;;12.31;61.20;94309.16;5155028;27;955;-51
2022/04/23 02:09:03;;;;;;;;;;;;;;;12.13;61.64;94320.31;5154922;27;1020;-51
2022/04/23 02:11:29;;;;;;;;;;;;;;;11.96;62.00;94321.59;5154829;27;1079;-51
2022/04/23 02:13:55;;;;;;;;;;;;;;;11.99;61.39;94316.69;5154856;27;1055;-51
2022/04/23 02:16:21;;;;;;;;;;;;;;;11.98;61.72;94319.56;5155060;27;1035;-51
2022/04/23 02:18:47;;;;;;;;;;;;;;;11.97;61.28;94324.09;5154735;27;1019;-51
2022/04/23 02:21:13;;;;;;;;;;;;;;;11.91;61.63;94325.69;5154923;27;960;-51
2022/04/23 02:23:39;;;;;;;;;;;;;;;11.61;62.96;94340.09;5154920;27;1994;-51
2022/04/23 02:26:05;;;;;;;;;;;;;;;11.30;63.41;94339.28;5155060;27;1075;-51
2022/04/23 02:28:32;;;;;;;;;;;;;;;11.13;63.72;94338.69;5155027;27;1014;-51
2022/04/23 02:30:58;;;;;;;;;;;;;;;11.07;63.87;94339.38;5154629;27;1043;-51
2022/04/23 02:33:24;;;;;;;;;;;;;;;11.10;63.76;94339.03;5154584;27;1095;-51
2022/04/23 02:35:50;;;;;;;;;;;;;;;11.06;64.46;94335.06;5154800;27;1039;-51
2022/04/23 02:38:17;;;;;;;;;;;;;;;10.98;65.03;94339.66;5154387;27;1184;-51
2022/04/23 02:40:43;;;;;;;;;;;;;;;10.99;65.59;94339.50;5154883;27;979;-51
2022/04/23 02:43:12;;;;;;;;;;;;;;;11.14;64.66;94339.50;5154568;27;965;-51
2022/04/23 02:45:39;;;;;;;;;;;;;;;11.01;64.95;94345.47;5154406;27;1902;-51
2022/04/23 02:48:05;;;;;;;;;;;;;;;10.93;65.38;94343.72;5154803;27;1089;-51
2022/04/23 02:50:32;;;;;;;;;;;;;;;10.82;65.16;94340.69;5156630;27;1027;-50
2022/04/23 02:52:59;;;;;;;;;;;;;;;10.74;65.16;94338.91;5158214;27;987;-51
2022/04/23 02:55:25;;;;;;;;;;;;;;;10.57;65.48;94332.88;5158094;27;1039;-50
2022/04/23 02:57:52;;;;;;;;;;;;;;;10.72;65.48;94327.56;5158029;27;1036;-51
2022/04/23 03:00:19;;;;;;;;;;;;;;;10.84;65.74;94333.31;5157948;27;1032;-51
2022/04/23 03:02:47;;;;;;;;;;;;;;;10.88;66.21;94330.06;5157971;27;895;-51
2022/04/23 03:05:16;;;;;;;;;;;;;;;10.83;65.44;94326.28;5157830;27;1910;-51
2022/04/23 03:07:43;;;;;;;;;;;;;;;10.67;65.41;94320.09;5157891;27;1011;-51
2022/04/23 03:10:10;;;;;;;;;;;;;;;10.65;65.78;94315.94;5158158;27;1022;-50
2022/04/23 03:12:36;;;;;;;;;;;;;;;10.79;66.39;94319.63;5157661;27;1194;-51
2022/04/23 03:15:03;;;;;;;;;;;;;;;10.79;65.68;94316.97;5158048;27;980;-51
2022/04/23 03:17:30;;;;;;;;;;;;;;;10.81;65.96;94329.13;5157889;27;1043;-49
2022/04/23 03:20:01;;;;;;;;;;;;;;;10.87;66.33;94330.25;5157638;27;1296;-51
2022/04/23 03:22:26;;;;;;;;;;;;;;;10.89;66.28;94325.56;5157488;27;1085;-51
2022/04/23 03:24:52;;;;;;;;;;;;;;;10.73;65.86;94334.56;5157514;27;1978;-51
2022/04/23 03:27:18;;;;;;;;;;;;;;;10.59;66.04;94328.19;5157415;27;1055;-49
2022/04/23 03:29:44;;;;;;;;;;;;;;;10.54;66.37;94330.56;5157674;27;1015;-50
2022/04/23 03:32:10;;;;;;;;;;;;;;;10.37;66.55;94321.03;5157560;27;979;-49
2022/04/23 03:34:37;;;;;;;;;;;;;;;10.24;67.32;94330.44;5157467;27;1055;-49
2022/04/23 03:37:04;;;;;;;;;;;;;;;10.42;66.86;94329.34;5157314;27;1619;-49
2022/04/23 03:39:30;;;;;;;;;;;;;;;10.49;66.74;94323.09;5157308;27;1079;-49
2022/04/23 03:41:56;;;;;;;;;;;;;;;10.52;66.49;94329.91;5157207;27;1047;-49
2022/04/23 03:44:22;;;;;;;;;;;;;;;10.53;66.33;94331.59;5157257;27;1905;-49
2022/04/23 03:46:48;;;;;;;;;;;;;;;10.52;66.99;94332.59;5157015;27;1012;-49
2022/04/23 03:49:14;;;;;;;;;;;;;;;10.48;66.31;94333.97;5157140;27;984;-49
2022/04/23 03:51:41;;;;;;;;;;;;;;;10.46;67.18;94341.34;5156889;27;960;-49
2022/04/23 03:54:07;;;;;;;;;;;;;;;10.59;66.88;94346.91;5156846;27;972;-49
2022/04/23 03:56:33;;;;;;;;;;;;;;;10.46;66.77;94346.69;5156727;27;1058;-49
2022/04/23 03:59:00;;;;;;;;;;;;;;;10.30;67.26;94340.47;5156825;27;1853;-49
2022/04/23 04:01:27;;;;;;;;;;;;;;;10.19;67.70;94343.53;5156634;27;1018;-49
2022/04/23 04:03:53;;;;;;;;;;;;;;;10.19;67.72;94356.88;5156789;27;1996;-49
2022/04/23 04:06:19;;;;;;;;;;;;;;;10.28;68.37;94347.78;5156575;27;1059;-50
2022/04/23 04:08:50;;;;;;;;;;;;;;;10.44;68.11;94346.03;5156584;27;1857;-50
2022/04/23 04:11:16;;;;;;;;;;;;;;;10.15;68.21;94347.56;5156521;27;1087;-50
2022/04/23 04:13:42;;;;;;;;;;;;;;;10.02;68.15;94350.81;5156762;27;991;-50
2022/04/23 04:16:08;;;;;;;;;;;;;;;10.03;68.79;94357.81;5156666;27;981;-50
2022/04/23 04:18:34;;;;;;;;;;;;;;;10.11;69.68;94362.25;5156509;27;1056;-50
2022/04/23 04:21:00;;;;;;;;;;;;;;;10.30;69.54;94368.97;5156217;27;1098;-50
2022/04/23 04:23:26;;;;;;;;;;;;;;;10.48;69.15;94371.38;5156282;27;1074;-50
2022/04/23 04:25:53;;;;;;;;;;;;;;;10.45;68.24;94387.75;5156129;27;1906;-50
2022/04/23 04:28:20;;;;;;;;;;;;;;;10.28;68.28;94379.84;5156455;27;1057;-50
2022/04/23 04:33:31;;;;;;;;;;;;;;;10.30;68.85;94377.88;5156414;27;980;-50
2022/04/23 04:35:57;;;;;;;;;;;;;;;10.67;68.18;94378.06;5156209;27;1051;-50
2022/04/23 04:38:23;;;;;;;;;;;;;;;11.43;65.62;94378.78;5155779;27;1237;-50
2022/04/23 04:40:49;;;;;;;;;;;;;;;12.38;62.74;94382.41;5156188;27;1047;-49
2022/04/23 04:43:15;;;;;;;;;;;;;;;13.63;59.53;94383.59;5156083;27;1035;-49
2022/04/23 04:45:41;;;;;;;;;;;;;;;14.74;56.94;94381.69;5156071;27;1987;-49
2022/04/23 04:48:07;;;;;;;;;;;;;;;15.28;55.94;94386.06;5156023;27;952;-50
2022/04/23 04:50:33;;;;;;;;;;;;;;;15.27;55.80;94388.94;5156014;27;1032;-50
2022/04/23 04:52:59;;;;;;;;;;;;;;;14.18;58.28;94378.25;5155671;27;1102;-50
2022/04/23 04:55:25;;;;;;;;;;;;;;;14.10;59.68;94380.31;5155696;27;1114;-49
2022/04/23 04:57:51;;;;;;;;;;;;;;;13.63;61.01;94386.28;5155709;27;1087;-49
2022/04/23 05:00:20;;;;;;;;;;;;;;;13.30;62.35;94396.84;5155940;27;1023;-50
2022/04/23 05:02:46;;;;;;;;;;;;;;;13.16;62.96;94392.38;5155622;27;1079;-50
2022/04/23 05:05:12;;;;;;;;;;;;;;;13.14;62.83;94402.47;5155537;27;1989;-50
2022/04/23 05:07:38;;;;;;;;;;;;;;;13.51;62.07;94411.19;5155823;27;994;-50
2022/04/23 05:10:04;;;;;;;;;;;;;;;13.94;60.85;94411.03;5155887;27;1109;-50
2022/04/23 05:12:30;;;;;;;;;;;;;;;13.90;59.17;94418.66;5155064;27;1031;-50
2022/04/23 05:14:56;;;;;;;;;;;;;;;13.97;59.10;94405.28;5155738;27;1010;-50
2022/04/23 05:17:22;;;;;;;;;;;;;;;13.93;59.89;94410.22;5155426;27;1040;-50
2022/04/23 05:19:48;;;;;;;;;;;;;;;13.92;59.11;94418.47;5154512;27;1063;-50
2022/04/23 05:22:14;;;;;;;;;;;;;;;13.86;59.71;94420.91;5155426;27;1028;-50
2022/04/23 05:24:40;;;;;;;;;;;;;;;13.85;59.28;94416.59;5155471;27;1917;-50
2022/04/23 05:27:06;;;;;;;;;;;;;;;13.88;59.30;94415.34;5155614;27;1060;-50
2022/04/23 05:29:32;;;;;;;;;;;;;;;13.97;59.36;94416.84;5155273;27;1183;-50
2022/04/23 05:31:58;;;;;;;;;;;;;;;14.12;58.69;94424.75;5155458;27;1026;-50
2022/04/23 05:34:28;;;;;;;;;;;;;;;14.22;59.40;94425.19;5155187;27;1023;-50
2022/04/23 05:36:54;;;;;;;;;;;;;;;14.24;57.89;94433.91;5154870;27;1082;-50
2022/04/23 05:39:20;;;;;;;;;;;;;;;14.37;58.92;94424.22;5155518;27;1050;-50
2022/04/23 05:41:47;;;;;;;;;;;;;;;14.79;57.09;94427.66;5155474;27;1028;-50
2022/04/23 05:44:13;;;;;;;;;;;;;;;15.18;56.94;94423.34;5155020;27;1905;-50
2022/04/23 05:46:38;;;;;;;;;;;;;;;15.32;56.27;94426.88;5155358;27;1035;-50
2022/04/23 05:49:04;;;;;;;;;;;;;;;15.52;56.15;94430.38;5155333;27;944;-50
2022/04/23 05:51:30;;;;;;;;;;;;;;;15.67;54.78;94430.16;5155189;27;976;-50
2022/04/23 05:53:56;;;;;;;;;;;;;;;15.86;54.82;94430.31;5155227;27;956;-50
2022/04/23 05:56:22;;;;;;;;;;;;;;;16.16;54.40;94426.09;5154972;27;1107;-50
2022/04/23 05:58:48;;;;;;;;;;;;;;;16.20;52.71;94432.72;5155098;27;1012;-50
2022/04/23 06:01:14;;;;;;;;;;;;;;;16.15;53.81;94435.22;5155118;27;1051;-50
2022/04/23 06:03:41;;;;;;;;;;;;;;;16.19;53.79;94439.16;5155136;27;1984;-50
2022/04/23 06:06:07;;;;;;;;;;;;;;;16.38;53.66;94433.88;5154713;27;1016;-50
2022/04/23 06:08:33;;;;;;;;;;;;;;;16.29;53.44;94436.00;5155080;27;968;-50
2022/04/23 06:10:59;;;;;;;;;;;;;;;16.66;52.70;94435.44;5155153;27;1043;-53
2022/04/23 06:13:25;;;;;;;;;;;;;;;17.02;51.25;94428.59;5155034;27;953;-51
2022/04/23 06:15:51;;;;;;;;;;;;;;;17.61;51.02;94429.97;5154856;27;1024;-50
2022/04/23 06:18:17;;;;;;;;;;;;;;;17.97;49.38;94433.78;5154701;27;1024;-50
2022/04/23 06:20:43;;;;;;;;;;;;;;;18.18;48.17;94435.22;5154834;27;1002;-50
2022/04/23 06:23:09;;;;;;;;;;;;;;;18.47;49.14;94436.31;5154662;27;1027;-51
2022/04/23 06:25:36;;;;;;;;;;;;;;;18.71;46.85;94433.75;5158585;27;1909;-51
2022/04/23 06:28:02;;;;;;;;;;;;;;;18.73;46.53;94440.56;5158525;27;1024;-51
2022/04/23 06:30:28;;;;;;;;;;;;;;;18.98;46.47;94441.53;5158560;27;1024;-53
2022/04/23 06:32:54;;;;;;;;;;;;;;;19.27;47.02;94442.53;5158587;27;1337;-52
2022/04/23 06:35:20;;;;;;;;;;;;;;;19.47;44.49;94442.22;5158559;27;1024;-52
2022/04/23 06:37:47;;;;;;;;;;;;;;;19.57;45.26;94439.75;5158200;27;1260;-51
2022/04/23 06:40:13;;;;;;;;;;;;;;;20.13;45.02;94448.41;5158312;27;1032;-50
2022/04/23 06:42:40;;;;;;;;;;;;;;;20.53;43.77;94453.06;5158553;27;1069;-50
2022/04/23 06:45:07;;;;;;;;;;;;;;;20.85;41.76;94448.03;5158314;27;1905;-50
2022/04/23 06:47:33;;;;;;;;;;;;;;;21.08;42.62;94449.00;5158398;27;1090;-50
2022/04/23 06:49:59;;;;;;;;;;;;;;;21.40;41.70;94451.19;5158377;27;980;-50
2022/04/23 06:52:26;;;;;;;;;;;;;;;21.49;39.32;94449.72;5158520;27;1040;-50
2022/04/23 06:54:54;;;;;;;;;;;;;;;21.86;40.60;94449.25;5158423;27;1027;-50
2022/04/23 06:57:22;;;;;;;;;;;;;;;22.01;39.46;94449.47;5158301;27;1037;-50
2022/04/23 06:59:49;;;;;;;;;;;;;;;22.08;39.49;94446.56;5158396;27;1024;-50
2022/04/23 07:02:15;;;;;;;;;;;;;;;21.95;40.11;94452.34;5158049;27;1019;-50
2022/04/23 07:04:41;;;;;;;;;;;;;;;22.33;39.38;94451.59;5157997;27;1897;-50
2022/04/23 07:07:08;;;;;;;;;;;;;;;22.86;38.17;94451.13;5157906;27;1011;-50
2022/04/23 07:09:34;;;;;;;;;;;;;;;23.20;38.38;94457.25;5157891;27;1023;-50
2022/04/23 07:12:00;;;;;;;;;;;;;;;23.16;36.06;94448.81;5158102;27;1200;-50
2022/04/23 07:14:26;;;;;;;;;;;;;;;23.39;36.93;94449.53;5158055;27;1019;-50
2022/04/23 07:16:52;;;;;;;;;;;;;;;23.47;37.26;94449.09;5157736;27;1094;-50
2022/04/23 07:19:18;;;;;;;;;;;;;;;23.48;36.79;94452.63;5157712;27;1023;-51
2022/04/23 07:21:44;;;;;;;;;;;;;;;23.54;37.21;94455.16;5157892;27;1059;-50
2022/04/23 07:24:11;;;;;;;;;;;;;;;23.44;35.95;94459.69;5157786;27;1993;-50
2022/04/23 07:26:38;;;;;;;;;;;;;;;23.31;38.23;94455.47;5157870;27;971;-51
2022/04/23 07:29:05;;;;;;;;;;;;;;;23.47;37.33;94456.47;5157817;27;995;-52
2022/04/23 07:31:31;;;;;;;;;;;;;;;23.69;37.69;94453.63;5157781;27;971;-51
2022/04/23 07:39:27;;;;;;;;;;;;;;;23.34;36.69;94461.25;5157508;27;988;-51
2022/04/23 07:41:54;;;;;;;;;;;;;;;23.20;36.07;94454.53;5157332;27;971;-51
2022/04/23 07:44:21;;;;;;;;;;;;;;;23.61;37.08;94459.59;5156944;27;1937;-51
2022/04/23 07:46:49;;;;;;;;;;;;;;;23.87;37.42;94458.75;5157708;27;1733;-51
2022/04/23 07:49:15;;;;;;;;;;;;;;;24.16;37.15;94461.94;5157230;27;972;-50
2022/04/23 07:51:42;;;;;;;;;;;;;;;23.76;35.34;94460.53;5157345;27;1026;-50
2022/04/23 07:54:08;;;;;;;;;;;;;;;23.46;36.44;94454.81;5156067;27;995;-50
2022/04/23 07:56:35;;;;;;;;;;;;;;;23.38;36.07;94456.09;5157012;27;1114;-50
2022/04/23 07:59:02;;;;;;;;;;;;;;;23.45;37.10;94456.72;5155598;27;1194;-50
2022/04/23 08:01:28;;;;;;;;;;;;;;;23.53;35.58;94444.50;5156779;27;1078;-50
2022/04/23 08:03:54;;;;;;;;;;;;;;;23.63;35.36;94455.50;5156845;27;1991;-50
2022/04/23 08:06:20;;;;;;;;;;;;;;;24.02;35.37;94447.13;5157066;27;1125;-50
2022/04/23 08:08:46;;;;;;;;;;;;;;;24.23;35.58;94453.53;5156848;27;1031;-51
2022/04/23 08:11:13;;;;;;;;;;;;;;;24.16;35.12;94451.00;5156568;27;1882;-51
2022/04/23 08:13:39;;;;;;;;;;;;;;;24.08;34.94;94450.69;5156438;27;1044;-50
2022/04/23 08:16:06;;;;;;;;;;;;;;;24.04;34.90;94444.13;5156749;27;1043;-50
2022/04/23 08:18:32;;;;;;;;;;;;;;;24.27;35.14;94449.19;5156367;27;1083;-50
2022/04/23 08:20:58;;;;;;;;;;;;;;;24.45;35.75;94449.81;5156376;27;1008;-50
2022/04/23 08:23:24;;;;;;;;;;;;;;;24.52;34.92;94453.19;5156654;27;1015;-50
2022/04/23 08:25:51;;;;;;;;;;;;;;;24.57;34.02;94453.22;5156567;27;1909;-50
2022/04/23 08:31:02;;;;;;;;;;;;;;;24.44;34.47;94443.53;5156465;27;952;-50
2022/04/23 08:34:13;;;;;;;;;;;;;;;24.77;34.68;94435.25;5156398;27;948;-50
2022/04/23 08:36:14;;;;;;;;;;;;;;;25.11;32.86;94435.63;5141487;27;1584;-50
2022/04/23 08:38:40;;;;;;;;;;;;;;;24.98;34.61;94425.19;5135216;27;1253;-50
2022/04/23 08:41:06;;;;;;;;;;;;;;;24.78;33.40;94425.97;5135558;27;976;-50
2022/04/23 08:43:32;;;;;;;;;;;;;;;24.09;34.38;94430.50;5135427;27;945;-50
2022/04/23 08:46:01;;;;;;;;;;;;;;;23.54;36.57;94425.16;5135330;27;1901;-50
2022/04/23 08:48:33;;;;;;;;;;;;;;;23.22;36.34;94421.56;5113897;28;1000;-50
2022/04/23 08:51:01;;;;;;;;;;;;;;;23.18;37.12;94416.66;5115002;28;1051;-50
2022/04/23 08:53:27;;;;;;;;;;;;;;;22.95;37.20;94423.16;5114415;28;1072;-50
2022/04/23 08:55:53;;;;;;;;;;;;;;;22.98;37.12;94417.22;5115080;28;1043;-50
2022/04/23 08:58:20;;;;;;;;;;;;;;;22.76;37.02;94422.69;5133833;27;1063;-51
2022/04/23 09:00:46;;;;;;;;;;;;;;;22.64;37.82;94427.47;5135295;27;945;-50
2022/04/23 09:03:13;;;;;;;;;;;;;;;22.47;37.41;94415.81;5134830;27;1028;-50
2022/04/23 09:05:39;;;;;;;;;;;;;;;22.06;37.25;94415.22;5135104;27;1990;-50
2022/04/23 09:08:05;;;;;;;;;;;;;;;21.74;38.25;94419.41;5134446;27;1030;-49
2022/04/23 09:10:44;;;;;;;;;;;;;;;21.70;38.95;94418.22;5135137;27;988;-49
2022/04/23 09:13:10;;;;;;;;;;;;;;;21.64;39.06;94416.50;5134631;27;1024;-49
2022/04/23 09:24:10;;;;;;;;;;;;;;;24.77;35.21;94416.94;5134751;27;1961;-49
2022/04/23 09:26:39;;;;;;;;;;;;;;;24.50;34.21;94415.16;5134375;27;956;-50
2022/04/23 09:29:12;;;;;;;;;;;;;;;23.95;34.29;94409.09;5134740;27;1043;-50
2022/04/23 09:31:38;;;;;;;;;;;;;;;23.40;35.41;94402.09;5134795;27;1039;-49
2022/04/23 09:34:14;;;;;;;;;;;;;;;23.20;36.63;94413.63;5134717;27;1046;-50
2022/04/23 09:36:50;;;;;;;;;;;;;;;23.12;36.08;94409.47;5134281;27;1296;-49
2022/04/23 09:39:27;;;;;;;;;;;;;;;23.32;35.84;94410.78;5134422;27;1035;-49
2022/04/23 09:41:53;;;;;;;;;;;;;;;23.08;34.82;94407.53;5134668;27;964;-49
2022/04/23 09:44:27;;;;;;;;;;;;;;;22.94;35.85;94407.09;5134278;27;1985;-49
2022/04/23 09:46:53;;;;;;;;;;;;;;;23.28;35.93;94401.47;5134244;27;1440;-49
2022/04/23 09:49:23;;;;;;;;;;;;;;;24.16;35.78;94403.78;5134306;28;1046;-49
2022/04/23 09:52:18;;;;;;;;;;;;;;;24.63;34.58;94397.47;5134266;27;1071;-50
2022/04/23 09:54:44;;;;;;;;;;;;;;;24.97;32.32;94388.84;5121131;27;1311;-49
2022/04/23 09:57:11;;;;;;;;;;;;;;;24.89;33.28;94394.81;5133951;27;1186;-49
2022/04/23 09:59:37;;;;;;;;;;;;;;;24.93;32.76;94393.22;5136604;27;1059;-50
2022/04/23 10:02:04;;;;;;;;;;;;;;;24.87;32.80;94386.91;5138408;27;1107;-49
2022/04/23 10:04:31;;;;;;;;;;;;;;;24.71;32.31;94393.41;5138683;27;1905;-49
2022/04/23 10:07:00;;;;;;;;;;;;;;;24.65;32.27;94392.56;5144046;27;1036;-49
2022/04/23 10:09:27;;;;;;;;;;;;;;;24.54;32.45;94391.69;5159191;27;1040;-49
2022/04/23 10:12:05;;;;;;;;;;;;;;;24.51;32.42;94384.06;5159153;27;1076;-49
2022/04/23 10:14:39;;;;;;;;;;;;;;;24.51;31.66;94384.06;5159225;27;1028;-49
2022/04/23 10:17:05;;;;;;;;;;;;;;;24.59;31.59;94392.84;5152360;27;1043;-49
2022/04/23 10:19:32;;;;;;;;;;;;;;;24.64;32.73;94388.19;5138045;27;1016;-50
2022/04/23 10:22:15;;;;;;;;;;;;;;;24.74;31.86;94380.03;5138034;27;1083;-50
2022/04/23 10:24:47;;;;;;;;;;;;;;;24.96;32.14;94378.97;5138280;27;1930;-49
2022/04/23 10:27:14;;;;;;;;;;;;;;;24.78;31.46;94382.25;5145020;27;1093;-49
2022/04/23 10:29:40;;;;;;;;;;;;;;;24.67;32.03;94378.63;5158608;27;1018;-49
2022/04/23 10:32:13;;;;;;;;;;;;;;;24.77;32.17;94375.13;5158506;27;1956;-49
2022/04/23 10:34:39;;;;;;;;;;;;;;;24.77;31.73;94372.38;5158543;27;1104;-49
2022/04/23 10:37:14;;;;;;;;;;;;;;;24.80;31.20;94380.06;5158034;27;1218;-49
2022/04/23 10:39:42;;;;;;;;;;;;;;;24.84;31.92;94381.16;5158399;27;1091;-49
2022/04/23 10:42:13;;;;;;;;;;;;;;;25.00;30.82;94368.34;5156886;27;1096;-49
2022/04/23 10:44:40;;;;;;;;;;;;;;;25.13;30.34;94367.81;5158363;27;1956;-49
2022/04/23 10:47:25;;;;;;;;;;;;;;;25.17;31.67;94377.09;5158284;27;1086;-50
2022/04/23 10:50:11;;;;;;;;;;;;;;;25.16;30.23;94375.47;5135466;27;1137;-49
2022/04/23 10:52:38;;;;;;;;;;;;;;;25.10;31.79;94368.38;5137287;27;1230;-50
2022/04/23 10:55:04;;;;;;;;;;;;;;;24.86;31.44;94373.50;5137643;27;1050;-50
2022/04/23 10:57:30;;;;;;;;;;;;;;;24.96;30.75;94381.72;5137694;27;1055;-50
2022/04/23 11:00:09;;;;;;;;;;;;;;;24.52;30.89;94384.88;5137241;27;1072;-50
2022/04/23 11:02:37;;;;;;;;;;;;;;;24.68;31.91;94377.53;5137530;27;968;-50
2022/04/23 11:13:38;;;;;;;;;;;;;;;24.15;30.94;94392.03;5137327;27;1040;-50
2022/04/23 11:16:10;;;;;;;;;;;;;;;23.84;31.47;94390.19;5137004;27;1095;-50
2022/04/23 11:18:37;;;;;;;;;;;;;;;24.09;33.00;94392.25;5137204;27;1039;-50
2022/04/23 11:21:11;;;;;;;;;;;;;;;24.26;31.66;94392.91;5136893;27;1019;-49
2022/04/23 11:23:42;;;;;;;;;;;;;;;24.51;32.18;94385.91;5136951;27;1052;-49
2022/04/23 11:26:11;;;;;;;;;;;;;;;24.81;31.26;94393.44;5136792;27;1905;-50
2022/04/23 11:28:39;;;;;;;;;;;;;;;25.13;31.21;94382.28;5136748;27;1016;-50
2022/04/23 11:31:09;;;;;;;;;;;;;;;25.03;32.39;94401.44;5155829;27;987;-50
2022/04/23 11:33:36;;;;;;;;;;;;;;;25.00;32.79;94395.69;5157390;27;1008;-50
2022/04/23 11:36:02;;;;;;;;;;;;;;;25.06;32.64;94394.59;5157425;27;961;-50
2022/04/23 11:38:29;;;;;;;;;;;;;;;24.79;31.99;94394.81;5157077;27;1229;-50
2022/04/23 11:40:55;;;;;;;;;;;;;;;24.22;31.60;94389.06;5157224;27;948;-50
2022/04/23 11:43:34;;;;;;;;;;;;;;;23.88;32.28;94385.84;5157416;27;1006;-50
2022/04/23 11:46:18;;;;;;;;;;;;;;;23.69;32.45;94386.22;5157223;27;1964;-50
2022/04/23 11:48:48;;;;;;;;;;;;;;;23.64;31.87;94379.91;5157205;27;969;-49
2022/04/23 11:51:15;;;;;;;;;;;;;;;23.72;33.03;94387.63;5156748;27;1086;-50
2022/04/23 11:54:08;;;;;;;;;;;;;;;23.66;31.63;94388.69;5155796;27;991;-50
2022/04/23 11:56:36;;;;;;;;;;;;;;;23.58;31.35;94381.78;5153288;27;1250;-50
2022/04/23 11:59:03;;;;;;;;;;;;;;;23.90;31.95;94389.97;5156686;27;1089;-50
2022/04/23 12:01:29;;;;;;;;;;;;;;;23.83;31.77;94396.72;5156994;27;1039;-50
2022/04/23 12:03:56;;;;;;;;;;;;;;;23.62;32.05;94388.38;5157050;27;1996;-49
2022/04/23 12:06:23;;;;;;;;;;;;;;;23.36;33.60;94384.63;5156898;27;1035;-50
2022/04/23 12:08:49;;;;;;;;;;;;;;;23.48;34.18;94376.25;5156869;27;956;-50
2022/04/23 12:11:28;;;;;;;;;;;;;;;23.75;35.05;94382.47;5156545;27;1191;-50
2022/04/23 12:13:54;;;;;;;;;;;;;;;23.76;34.05;94386.84;5156613;27;1036;-50
2022/04/23 12:16:33;;;;;;;;;;;;;;;23.48;33.15;94382.53;5156689;27;1043;-50
2022/04/23 12:18:59;;;;;;;;;;;;;;;23.20;33.75;94386.38;5157025;27;998;-50
2022/04/23 12:21:26;;;;;;;;;;;;;;;23.03;33.80;94383.78;5156438;27;1047;-49
2022/04/23 12:23:53;;;;;;;;;;;;;;;23.31;34.18;94384.56;5156606;27;1886;-50
2022/04/23 12:26:21;;;;;;;;;;;;;;;23.59;33.69;94383.44;5156480;27;1056;-50
2022/04/23 12:43:21;;;;;;;;;;;;;;;22.83;34.17;94364.47;5155764;27;1124;-49
2022/04/23 12:45:48;;;;;;;;;;;;;;;22.87;35.10;94365.59;5156118;27;1996;-50
2022/04/23 12:48:14;;;;;;;;;;;;;;;22.92;35.01;94362.94;5156183;27;1039;-50
2022/04/23 12:50:42;;;;;;;;;;;;;;;22.93;35.24;94367.28;5156113;27;1022;-50
2022/04/23 12:53:09;;;;;;;;;;;;;;;22.84;34.78;94371.53;5155877;27;1034;-50
2022/04/23 12:55:38;;;;;;;;;;;;;;;22.65;34.63;94369.19;5156139;27;1138;-49
2022/04/23 12:58:04;;;;;;;;;;;;;;;22.44;34.77;94376.28;5156024;27;1027;-50
2022/04/23 13:00:31;;;;;;;;;;;;;;;22.41;35.15;94379.53;5149336;27;1161;-49
2022/04/23 13:03:03;;;;;;;;;;;;;;;22.25;35.17;94385.81;5155735;27;1047;-51
2022/04/23 13:05:29;;;;;;;;;;;;;;;22.20;36.41;94389.31;5155873;27;1980;-51
2022/04/23 13:10:40;;;;;;;;;;;;;;;22.17;36.18;94373.47;5155648;27;1082;-51
2022/04/23 13:13:09;;;;;;;;;;;;;;;22.15;36.90;94375.63;5155582;27;972;-51
2022/04/23 13:15:35;;;;;;;;;;;;;;;22.05;35.73;94378.22;5155453;27;1031;-50
2022/04/23 13:18:02;;;;;;;;;;;;;;;21.91;35.96;94378.59;5154522;27;1039;-49
2022/04/23 13:20:28;;;;;;;;;;;;;;;21.81;36.17;94384.66;5154788;27;1022;-49
2022/04/23 13:22:55;;;;;;;;;;;;;;;21.80;36.60;94385.75;5154771;27;972;-49
2022/04/23 13:25:21;;;;;;;;;;;;;;;21.76;36.44;94383.78;5155262;27;1910;-49
2022/04/23 13:27:47;;;;;;;;;;;;;;;21.70;37.18;94379.34;5155565;27;1047;-49
2022/04/23 13:30:14;;;;;;;;;;;;;;;21.71;36.89;94375.56;5155379;27;1051;-50
2022/04/23 13:32:42;;;;;;;;;;;;;;;21.69;36.68;94373.09;5154368;27;1043;-50
2022/04/23 13:35:10;;;;;;;;;;;;;;;21.74;37.05;94383.19;5154953;27;968;-50
2022/04/23 13:37:36;;;;;;;;;;;;;;;21.76;37.28;94372.88;5155197;27;1063;-50
2022/04/23 13:40:03;;;;;;;;;;;;;;;21.86;37.66;94378.50;5154946;27;1275;-50
2022/04/23 13:42:30;;;;;;;;;;;;;;;22.02;36.15;94388.53;5155181;27;1218;-50
2022/04/23 13:44:57;;;;;;;;;;;;;;;22.16;36.84;94382.72;5155293;27;1913;-50
2022/04/23 13:47:23;;;;;;;;;;;;;;;22.11;37.23;94383.47;5154951;27;1039;-50